<?xml version="1.0" encoding="UTF-8" standalone="no" ?>
<gpx xmlns="http://www.topografix.com/GPX/1/1" xmlns:xsi="http://www.w3.org/2001/XMLSchema-instance" xsi:schemaLocation="http://www.topografix.com/GPX/1/1 http://www.topografix.com/GPX/1/1/gpx.xsd" version="1.1" creator="VisuGPX - https://www.visugpx.com">
  <metadata>
    <name>hG4r8819ka</name>
    <desc><![CDATA[

]]></desc>
  </metadata>
  <trk>
    <name><![CDATA[hG4r8819ka_1]]></name>
    <trkseg>
      <trkpt lat="46.15532" lon="4.58052">
        <ele>436.4</ele>
        <time>2020-10-19T14:27:53Z</time>
      </trkpt>
      <trkpt lat="46.15532" lon="4.58052">
        <ele>436.4</ele>
        <time>2020-10-19T14:27:53Z</time>
      </trkpt>
      <trkpt lat="46.15532" lon="4.58052">
        <ele>436.2</ele>
        <time>2020-10-19T14:27:54Z</time>
      </trkpt>
      <trkpt lat="46.15528" lon="4.58052">
        <ele>436</ele>
        <time>2020-10-19T14:27:55Z</time>
      </trkpt>
      <trkpt lat="46.15528" lon="4.58052">
        <ele>436</ele>
        <time>2020-10-19T14:27:56Z</time>
      </trkpt>
      <trkpt lat="46.15526" lon="4.58053">
        <ele>436</ele>
        <time>2020-10-19T14:27:57Z</time>
      </trkpt>
      <trkpt lat="46.15526" lon="4.58053">
        <ele>435.8</ele>
        <time>2020-10-19T14:27:58Z</time>
      </trkpt>
      <trkpt lat="46.15523" lon="4.58054">
        <ele>435.6</ele>
        <time>2020-10-19T14:27:59Z</time>
      </trkpt>
      <trkpt lat="46.15523" lon="4.58054">
        <ele>435.6</ele>
        <time>2020-10-19T14:28:00Z</time>
      </trkpt>
      <trkpt lat="46.15521" lon="4.58057">
        <ele>435.4</ele>
        <time>2020-10-19T14:28:01Z</time>
      </trkpt>
      <trkpt lat="46.15521" lon="4.58057">
        <ele>435.2</ele>
        <time>2020-10-19T14:28:02Z</time>
      </trkpt>
      <trkpt lat="46.15519" lon="4.58058">
        <ele>435</ele>
        <time>2020-10-19T14:28:03Z</time>
      </trkpt>
      <trkpt lat="46.15519" lon="4.58058">
        <ele>434.8</ele>
        <time>2020-10-19T14:28:04Z</time>
      </trkpt>
      <trkpt lat="46.15517" lon="4.5806">
        <ele>434.4</ele>
        <time>2020-10-19T14:28:05Z</time>
      </trkpt>
      <trkpt lat="46.15517" lon="4.5806">
        <ele>434.2</ele>
        <time>2020-10-19T14:28:06Z</time>
      </trkpt>
      <trkpt lat="46.15517" lon="4.5806">
        <ele>434</ele>
        <time>2020-10-19T14:28:07Z</time>
      </trkpt>
      <trkpt lat="46.15516" lon="4.58062">
        <ele>433.6</ele>
        <time>2020-10-19T14:28:08Z</time>
      </trkpt>
      <trkpt lat="46.15516" lon="4.58062">
        <ele>433.4</ele>
        <time>2020-10-19T14:28:09Z</time>
      </trkpt>
      <trkpt lat="46.15514" lon="4.58063">
        <ele>433.4</ele>
        <time>2020-10-19T14:28:10Z</time>
      </trkpt>
      <trkpt lat="46.15512" lon="4.58065">
        <ele>433</ele>
        <time>2020-10-19T14:28:11Z</time>
      </trkpt>
      <trkpt lat="46.15512" lon="4.58065">
        <ele>433</ele>
        <time>2020-10-19T14:28:12Z</time>
      </trkpt>
      <trkpt lat="46.1551" lon="4.58068">
        <ele>432.8</ele>
        <time>2020-10-19T14:28:13Z</time>
      </trkpt>
      <trkpt lat="46.15509" lon="4.5807">
        <ele>432.6</ele>
        <time>2020-10-19T14:28:14Z</time>
      </trkpt>
      <trkpt lat="46.15507" lon="4.58072">
        <ele>432.6</ele>
        <time>2020-10-19T14:28:15Z</time>
      </trkpt>
      <trkpt lat="46.15507" lon="4.58072">
        <ele>432.4</ele>
        <time>2020-10-19T14:28:16Z</time>
      </trkpt>
      <trkpt lat="46.15505" lon="4.58074">
        <ele>432</ele>
        <time>2020-10-19T14:28:17Z</time>
      </trkpt>
      <trkpt lat="46.15505" lon="4.58074">
        <ele>431.8</ele>
        <time>2020-10-19T14:28:18Z</time>
      </trkpt>
      <trkpt lat="46.15503" lon="4.58076">
        <ele>431.6</ele>
        <time>2020-10-19T14:28:19Z</time>
      </trkpt>
      <trkpt lat="46.15503" lon="4.58076">
        <ele>431</ele>
        <time>2020-10-19T14:28:20Z</time>
      </trkpt>
      <trkpt lat="46.15501" lon="4.58078">
        <ele>430.8</ele>
        <time>2020-10-19T14:28:21Z</time>
      </trkpt>
      <trkpt lat="46.15501" lon="4.58078">
        <ele>430.6</ele>
        <time>2020-10-19T14:28:22Z</time>
      </trkpt>
      <trkpt lat="46.15498" lon="4.5808">
        <ele>430.2</ele>
        <time>2020-10-19T14:28:23Z</time>
      </trkpt>
      <trkpt lat="46.15498" lon="4.5808">
        <ele>430</ele>
        <time>2020-10-19T14:28:24Z</time>
      </trkpt>
      <trkpt lat="46.15496" lon="4.58081">
        <ele>429.6</ele>
        <time>2020-10-19T14:28:25Z</time>
      </trkpt>
      <trkpt lat="46.15496" lon="4.58081">
        <ele>429.4</ele>
        <time>2020-10-19T14:28:26Z</time>
      </trkpt>
      <trkpt lat="46.15493" lon="4.58081">
        <ele>429.2</ele>
        <time>2020-10-19T14:28:27Z</time>
      </trkpt>
      <trkpt lat="46.15493" lon="4.58081">
        <ele>428.8</ele>
        <time>2020-10-19T14:28:28Z</time>
      </trkpt>
      <trkpt lat="46.15489" lon="4.5808">
        <ele>428.4</ele>
        <time>2020-10-19T14:28:29Z</time>
      </trkpt>
      <trkpt lat="46.15487" lon="4.58079">
        <ele>428.4</ele>
        <time>2020-10-19T14:28:30Z</time>
      </trkpt>
      <trkpt lat="46.15487" lon="4.58079">
        <ele>428.2</ele>
        <time>2020-10-19T14:28:31Z</time>
      </trkpt>
      <trkpt lat="46.15485" lon="4.58078">
        <ele>427.8</ele>
        <time>2020-10-19T14:28:32Z</time>
      </trkpt>
      <trkpt lat="46.15485" lon="4.58078">
        <ele>427.6</ele>
        <time>2020-10-19T14:28:33Z</time>
      </trkpt>
      <trkpt lat="46.15483" lon="4.58076">
        <ele>427.6</ele>
        <time>2020-10-19T14:28:34Z</time>
      </trkpt>
      <trkpt lat="46.15483" lon="4.58076">
        <ele>427.4</ele>
        <time>2020-10-19T14:28:35Z</time>
      </trkpt>
      <trkpt lat="46.1548" lon="4.58073">
        <ele>427.2</ele>
        <time>2020-10-19T14:28:36Z</time>
      </trkpt>
      <trkpt lat="46.1548" lon="4.58073">
        <ele>426.8</ele>
        <time>2020-10-19T14:28:37Z</time>
      </trkpt>
      <trkpt lat="46.15479" lon="4.58072">
        <ele>426.6</ele>
        <time>2020-10-19T14:28:38Z</time>
      </trkpt>
      <trkpt lat="46.15479" lon="4.58072">
        <ele>426.2</ele>
        <time>2020-10-19T14:28:39Z</time>
      </trkpt>
      <trkpt lat="46.15476" lon="4.5807">
        <ele>426</ele>
        <time>2020-10-19T14:28:40Z</time>
      </trkpt>
      <trkpt lat="46.15476" lon="4.5807">
        <ele>425.6</ele>
        <time>2020-10-19T14:28:41Z</time>
      </trkpt>
      <trkpt lat="46.15474" lon="4.58068">
        <ele>425.4</ele>
        <time>2020-10-19T14:28:42Z</time>
      </trkpt>
      <trkpt lat="46.15474" lon="4.58068">
        <ele>425.2</ele>
        <time>2020-10-19T14:28:43Z</time>
      </trkpt>
      <trkpt lat="46.15471" lon="4.58066">
        <ele>425.2</ele>
        <time>2020-10-19T14:28:44Z</time>
      </trkpt>
      <trkpt lat="46.15471" lon="4.58066">
        <ele>425</ele>
        <time>2020-10-19T14:28:45Z</time>
      </trkpt>
      <trkpt lat="46.15468" lon="4.58064">
        <ele>425</ele>
        <time>2020-10-19T14:28:46Z</time>
      </trkpt>
      <trkpt lat="46.15466" lon="4.58063">
        <ele>424.6</ele>
        <time>2020-10-19T14:28:47Z</time>
      </trkpt>
      <trkpt lat="46.15464" lon="4.58063">
        <ele>424.4</ele>
        <time>2020-10-19T14:28:48Z</time>
      </trkpt>
      <trkpt lat="46.15464" lon="4.58063">
        <ele>424.2</ele>
        <time>2020-10-19T14:28:49Z</time>
      </trkpt>
      <trkpt lat="46.15461" lon="4.58063">
        <ele>423.8</ele>
        <time>2020-10-19T14:28:50Z</time>
      </trkpt>
      <trkpt lat="46.15461" lon="4.58063">
        <ele>423.8</ele>
        <time>2020-10-19T14:28:51Z</time>
      </trkpt>
      <trkpt lat="46.15458" lon="4.58061">
        <ele>423.6</ele>
        <time>2020-10-19T14:28:52Z</time>
      </trkpt>
      <trkpt lat="46.15458" lon="4.58061">
        <ele>423.6</ele>
        <time>2020-10-19T14:28:53Z</time>
      </trkpt>
      <trkpt lat="46.15456" lon="4.5806">
        <ele>423.2</ele>
        <time>2020-10-19T14:28:54Z</time>
      </trkpt>
      <trkpt lat="46.15456" lon="4.5806">
        <ele>422.8</ele>
        <time>2020-10-19T14:28:55Z</time>
      </trkpt>
      <trkpt lat="46.15453" lon="4.58059">
        <ele>422.4</ele>
        <time>2020-10-19T14:28:56Z</time>
      </trkpt>
      <trkpt lat="46.15453" lon="4.58059">
        <ele>422.2</ele>
        <time>2020-10-19T14:28:57Z</time>
      </trkpt>
      <trkpt lat="46.1545" lon="4.58059">
        <ele>422</ele>
        <time>2020-10-19T14:28:58Z</time>
      </trkpt>
      <trkpt lat="46.1545" lon="4.58059">
        <ele>422</ele>
        <time>2020-10-19T14:28:59Z</time>
      </trkpt>
      <trkpt lat="46.15447" lon="4.58058">
        <ele>421.8</ele>
        <time>2020-10-19T14:29:00Z</time>
      </trkpt>
      <trkpt lat="46.15445" lon="4.58057">
        <ele>421.6</ele>
        <time>2020-10-19T14:29:01Z</time>
      </trkpt>
      <trkpt lat="46.15445" lon="4.58057">
        <ele>421.6</ele>
        <time>2020-10-19T14:29:02Z</time>
      </trkpt>
      <trkpt lat="46.15443" lon="4.58056">
        <ele>421.6</ele>
        <time>2020-10-19T14:29:03Z</time>
      </trkpt>
      <trkpt lat="46.15441" lon="4.58055">
        <ele>421.6</ele>
        <time>2020-10-19T14:29:04Z</time>
      </trkpt>
      <trkpt lat="46.15441" lon="4.58055">
        <ele>421.2</ele>
        <time>2020-10-19T14:29:05Z</time>
      </trkpt>
      <trkpt lat="46.15438" lon="4.58054">
        <ele>420.8</ele>
        <time>2020-10-19T14:29:06Z</time>
      </trkpt>
      <trkpt lat="46.15438" lon="4.58054">
        <ele>420.6</ele>
        <time>2020-10-19T14:29:07Z</time>
      </trkpt>
      <trkpt lat="46.15435" lon="4.58053">
        <ele>420.2</ele>
        <time>2020-10-19T14:29:08Z</time>
      </trkpt>
      <trkpt lat="46.15435" lon="4.58053">
        <ele>420.2</ele>
        <time>2020-10-19T14:29:09Z</time>
      </trkpt>
      <trkpt lat="46.15431" lon="4.58052">
        <ele>420</ele>
        <time>2020-10-19T14:29:10Z</time>
      </trkpt>
      <trkpt lat="46.15431" lon="4.58052">
        <ele>419.8</ele>
        <time>2020-10-19T14:29:11Z</time>
      </trkpt>
      <trkpt lat="46.15428" lon="4.58051">
        <ele>419.4</ele>
        <time>2020-10-19T14:29:12Z</time>
      </trkpt>
      <trkpt lat="46.15428" lon="4.58051">
        <ele>419.2</ele>
        <time>2020-10-19T14:29:13Z</time>
      </trkpt>
      <trkpt lat="46.15425" lon="4.5805">
        <ele>419</ele>
        <time>2020-10-19T14:29:14Z</time>
      </trkpt>
      <trkpt lat="46.15425" lon="4.5805">
        <ele>418.8</ele>
        <time>2020-10-19T14:29:15Z</time>
      </trkpt>
      <trkpt lat="46.15422" lon="4.58049">
        <ele>418.4</ele>
        <time>2020-10-19T14:29:16Z</time>
      </trkpt>
      <trkpt lat="46.15422" lon="4.58049">
        <ele>418.2</ele>
        <time>2020-10-19T14:29:17Z</time>
      </trkpt>
      <trkpt lat="46.1542" lon="4.58047">
        <ele>418</ele>
        <time>2020-10-19T14:29:18Z</time>
      </trkpt>
      <trkpt lat="46.1542" lon="4.58047">
        <ele>418</ele>
        <time>2020-10-19T14:29:19Z</time>
      </trkpt>
      <trkpt lat="46.15418" lon="4.58046">
        <ele>417.8</ele>
        <time>2020-10-19T14:29:20Z</time>
      </trkpt>
      <trkpt lat="46.15418" lon="4.58046">
        <ele>417.6</ele>
        <time>2020-10-19T14:29:21Z</time>
      </trkpt>
      <trkpt lat="46.15418" lon="4.58046">
        <ele>417.2</ele>
        <time>2020-10-19T14:29:22Z</time>
      </trkpt>
      <trkpt lat="46.15415" lon="4.58044">
        <ele>416.8</ele>
        <time>2020-10-19T14:29:23Z</time>
      </trkpt>
      <trkpt lat="46.15415" lon="4.58044">
        <ele>416.6</ele>
        <time>2020-10-19T14:29:24Z</time>
      </trkpt>
      <trkpt lat="46.15412" lon="4.58042">
        <ele>416.2</ele>
        <time>2020-10-19T14:29:25Z</time>
      </trkpt>
      <trkpt lat="46.15411" lon="4.58039">
        <ele>416</ele>
        <time>2020-10-19T14:29:26Z</time>
      </trkpt>
      <trkpt lat="46.15411" lon="4.58039">
        <ele>416</ele>
        <time>2020-10-19T14:29:27Z</time>
      </trkpt>
      <trkpt lat="46.15408" lon="4.58037">
        <ele>415.6</ele>
        <time>2020-10-19T14:29:28Z</time>
      </trkpt>
      <trkpt lat="46.15408" lon="4.58037">
        <ele>415.2</ele>
        <time>2020-10-19T14:29:29Z</time>
      </trkpt>
      <trkpt lat="46.15405" lon="4.58035">
        <ele>414.8</ele>
        <time>2020-10-19T14:29:30Z</time>
      </trkpt>
      <trkpt lat="46.15405" lon="4.58035">
        <ele>414.6</ele>
        <time>2020-10-19T14:29:31Z</time>
      </trkpt>
      <trkpt lat="46.15402" lon="4.58033">
        <ele>414.2</ele>
        <time>2020-10-19T14:29:32Z</time>
      </trkpt>
      <trkpt lat="46.15401" lon="4.58032">
        <ele>414</ele>
        <time>2020-10-19T14:29:33Z</time>
      </trkpt>
      <trkpt lat="46.15401" lon="4.58032">
        <ele>413.8</ele>
        <time>2020-10-19T14:29:34Z</time>
      </trkpt>
      <trkpt lat="46.15397" lon="4.58031">
        <ele>413.6</ele>
        <time>2020-10-19T14:29:35Z</time>
      </trkpt>
      <trkpt lat="46.15396" lon="4.5803">
        <ele>413.4</ele>
        <time>2020-10-19T14:29:36Z</time>
      </trkpt>
      <trkpt lat="46.15394" lon="4.58029">
        <ele>413.2</ele>
        <time>2020-10-19T14:29:37Z</time>
      </trkpt>
      <trkpt lat="46.15392" lon="4.58028">
        <ele>412.8</ele>
        <time>2020-10-19T14:29:38Z</time>
      </trkpt>
      <trkpt lat="46.15392" lon="4.58028">
        <ele>412.6</ele>
        <time>2020-10-19T14:29:39Z</time>
      </trkpt>
      <trkpt lat="46.15389" lon="4.58026">
        <ele>412.4</ele>
        <time>2020-10-19T14:29:40Z</time>
      </trkpt>
      <trkpt lat="46.15389" lon="4.58026">
        <ele>412</ele>
        <time>2020-10-19T14:29:41Z</time>
      </trkpt>
      <trkpt lat="46.15386" lon="4.58025">
        <ele>411.6</ele>
        <time>2020-10-19T14:29:42Z</time>
      </trkpt>
      <trkpt lat="46.15386" lon="4.58025">
        <ele>411.8</ele>
        <time>2020-10-19T14:29:43Z</time>
      </trkpt>
      <trkpt lat="46.15383" lon="4.58023">
        <ele>411.6</ele>
        <time>2020-10-19T14:29:44Z</time>
      </trkpt>
      <trkpt lat="46.15383" lon="4.58023">
        <ele>411.4</ele>
        <time>2020-10-19T14:29:45Z</time>
      </trkpt>
      <trkpt lat="46.1538" lon="4.58022">
        <ele>411.6</ele>
        <time>2020-10-19T14:29:46Z</time>
      </trkpt>
      <trkpt lat="46.1538" lon="4.58022">
        <ele>411.6</ele>
        <time>2020-10-19T14:29:47Z</time>
      </trkpt>
      <trkpt lat="46.15378" lon="4.5802">
        <ele>411.4</ele>
        <time>2020-10-19T14:29:48Z</time>
      </trkpt>
      <trkpt lat="46.15378" lon="4.5802">
        <ele>411.2</ele>
        <time>2020-10-19T14:29:49Z</time>
      </trkpt>
      <trkpt lat="46.15375" lon="4.58018">
        <ele>411.2</ele>
        <time>2020-10-19T14:29:50Z</time>
      </trkpt>
      <trkpt lat="46.15375" lon="4.58018">
        <ele>411</ele>
        <time>2020-10-19T14:29:51Z</time>
      </trkpt>
      <trkpt lat="46.15373" lon="4.58016">
        <ele>410.8</ele>
        <time>2020-10-19T14:29:52Z</time>
      </trkpt>
      <trkpt lat="46.15373" lon="4.58016">
        <ele>410.6</ele>
        <time>2020-10-19T14:29:53Z</time>
      </trkpt>
      <trkpt lat="46.15372" lon="4.58013">
        <ele>410.2</ele>
        <time>2020-10-19T14:29:54Z</time>
      </trkpt>
      <trkpt lat="46.15372" lon="4.58013">
        <ele>410</ele>
        <time>2020-10-19T14:29:55Z</time>
      </trkpt>
      <trkpt lat="46.15369" lon="4.58012">
        <ele>409.8</ele>
        <time>2020-10-19T14:29:56Z</time>
      </trkpt>
      <trkpt lat="46.15369" lon="4.58012">
        <ele>409.6</ele>
        <time>2020-10-19T14:29:57Z</time>
      </trkpt>
      <trkpt lat="46.15367" lon="4.5801">
        <ele>409.4</ele>
        <time>2020-10-19T14:29:58Z</time>
      </trkpt>
      <trkpt lat="46.15367" lon="4.5801">
        <ele>409.2</ele>
        <time>2020-10-19T14:29:59Z</time>
      </trkpt>
      <trkpt lat="46.15365" lon="4.58009">
        <ele>409.2</ele>
        <time>2020-10-19T14:30:00Z</time>
      </trkpt>
      <trkpt lat="46.15365" lon="4.58009">
        <ele>408.8</ele>
        <time>2020-10-19T14:30:01Z</time>
      </trkpt>
      <trkpt lat="46.15362" lon="4.58008">
        <ele>408.8</ele>
        <time>2020-10-19T14:30:02Z</time>
      </trkpt>
      <trkpt lat="46.15362" lon="4.58008">
        <ele>408.8</ele>
        <time>2020-10-19T14:30:03Z</time>
      </trkpt>
      <trkpt lat="46.15362" lon="4.58008">
        <ele>408.6</ele>
        <time>2020-10-19T14:30:04Z</time>
      </trkpt>
      <trkpt lat="46.1536" lon="4.58008">
        <ele>408.6</ele>
        <time>2020-10-19T14:30:05Z</time>
      </trkpt>
      <trkpt lat="46.1536" lon="4.58008">
        <ele>408.4</ele>
        <time>2020-10-19T14:30:06Z</time>
      </trkpt>
      <trkpt lat="46.15358" lon="4.58007">
        <ele>408.2</ele>
        <time>2020-10-19T14:30:07Z</time>
      </trkpt>
      <trkpt lat="46.15358" lon="4.58007">
        <ele>408.2</ele>
        <time>2020-10-19T14:30:08Z</time>
      </trkpt>
      <trkpt lat="46.15355" lon="4.58006">
        <ele>408</ele>
        <time>2020-10-19T14:30:09Z</time>
      </trkpt>
      <trkpt lat="46.15355" lon="4.58006">
        <ele>408.2</ele>
        <time>2020-10-19T14:30:10Z</time>
      </trkpt>
      <trkpt lat="46.15353" lon="4.58004">
        <ele>408</ele>
        <time>2020-10-19T14:30:11Z</time>
      </trkpt>
      <trkpt lat="46.15351" lon="4.58004">
        <ele>407.8</ele>
        <time>2020-10-19T14:30:12Z</time>
      </trkpt>
      <trkpt lat="46.15351" lon="4.58004">
        <ele>407.8</ele>
        <time>2020-10-19T14:30:13Z</time>
      </trkpt>
      <trkpt lat="46.15347" lon="4.58003">
        <ele>407.4</ele>
        <time>2020-10-19T14:30:14Z</time>
      </trkpt>
      <trkpt lat="46.15347" lon="4.58003">
        <ele>407</ele>
        <time>2020-10-19T14:30:15Z</time>
      </trkpt>
      <trkpt lat="46.15344" lon="4.58002">
        <ele>406.6</ele>
        <time>2020-10-19T14:30:16Z</time>
      </trkpt>
      <trkpt lat="46.15342" lon="4.58001">
        <ele>406.4</ele>
        <time>2020-10-19T14:30:17Z</time>
      </trkpt>
      <trkpt lat="46.1534" lon="4.58">
        <ele>406.2</ele>
        <time>2020-10-19T14:30:18Z</time>
      </trkpt>
      <trkpt lat="46.1534" lon="4.58">
        <ele>406</ele>
        <time>2020-10-19T14:30:19Z</time>
      </trkpt>
      <trkpt lat="46.15337" lon="4.57998">
        <ele>405.6</ele>
        <time>2020-10-19T14:30:20Z</time>
      </trkpt>
      <trkpt lat="46.15337" lon="4.57998">
        <ele>405.4</ele>
        <time>2020-10-19T14:30:21Z</time>
      </trkpt>
      <trkpt lat="46.15335" lon="4.57997">
        <ele>405</ele>
        <time>2020-10-19T14:30:22Z</time>
      </trkpt>
      <trkpt lat="46.15335" lon="4.57997">
        <ele>404.8</ele>
        <time>2020-10-19T14:30:23Z</time>
      </trkpt>
      <trkpt lat="46.15332" lon="4.57996">
        <ele>404.6</ele>
        <time>2020-10-19T14:30:24Z</time>
      </trkpt>
      <trkpt lat="46.15332" lon="4.57996">
        <ele>404.4</ele>
        <time>2020-10-19T14:30:25Z</time>
      </trkpt>
      <trkpt lat="46.15329" lon="4.57995">
        <ele>404.4</ele>
        <time>2020-10-19T14:30:26Z</time>
      </trkpt>
      <trkpt lat="46.15329" lon="4.57995">
        <ele>404.4</ele>
        <time>2020-10-19T14:30:27Z</time>
      </trkpt>
      <trkpt lat="46.15326" lon="4.57994">
        <ele>404.2</ele>
        <time>2020-10-19T14:30:28Z</time>
      </trkpt>
      <trkpt lat="46.15326" lon="4.57994">
        <ele>404</ele>
        <time>2020-10-19T14:30:29Z</time>
      </trkpt>
      <trkpt lat="46.15322" lon="4.57993">
        <ele>403.8</ele>
        <time>2020-10-19T14:30:30Z</time>
      </trkpt>
      <trkpt lat="46.15322" lon="4.57993">
        <ele>403.6</ele>
        <time>2020-10-19T14:30:31Z</time>
      </trkpt>
      <trkpt lat="46.1532" lon="4.57991">
        <ele>403.6</ele>
        <time>2020-10-19T14:30:32Z</time>
      </trkpt>
      <trkpt lat="46.1532" lon="4.57991">
        <ele>403.6</ele>
        <time>2020-10-19T14:30:33Z</time>
      </trkpt>
      <trkpt lat="46.15318" lon="4.57987">
        <ele>403.6</ele>
        <time>2020-10-19T14:30:34Z</time>
      </trkpt>
      <trkpt lat="46.15318" lon="4.57987">
        <ele>403.6</ele>
        <time>2020-10-19T14:30:35Z</time>
      </trkpt>
      <trkpt lat="46.15315" lon="4.57985">
        <ele>403.4</ele>
        <time>2020-10-19T14:30:36Z</time>
      </trkpt>
      <trkpt lat="46.15315" lon="4.57985">
        <ele>403.4</ele>
        <time>2020-10-19T14:30:37Z</time>
      </trkpt>
      <trkpt lat="46.15312" lon="4.57984">
        <ele>403</ele>
        <time>2020-10-19T14:30:38Z</time>
      </trkpt>
      <trkpt lat="46.15312" lon="4.57984">
        <ele>402.8</ele>
        <time>2020-10-19T14:30:39Z</time>
      </trkpt>
      <trkpt lat="46.15309" lon="4.57983">
        <ele>402.2</ele>
        <time>2020-10-19T14:30:40Z</time>
      </trkpt>
      <trkpt lat="46.15309" lon="4.57983">
        <ele>402</ele>
        <time>2020-10-19T14:30:41Z</time>
      </trkpt>
      <trkpt lat="46.15306" lon="4.57981">
        <ele>401.8</ele>
        <time>2020-10-19T14:30:42Z</time>
      </trkpt>
      <trkpt lat="46.15306" lon="4.57981">
        <ele>401.6</ele>
        <time>2020-10-19T14:30:43Z</time>
      </trkpt>
      <trkpt lat="46.15303" lon="4.5798">
        <ele>401.2</ele>
        <time>2020-10-19T14:30:44Z</time>
      </trkpt>
      <trkpt lat="46.15303" lon="4.5798">
        <ele>401</ele>
        <time>2020-10-19T14:30:45Z</time>
      </trkpt>
      <trkpt lat="46.153" lon="4.57978">
        <ele>400.8</ele>
        <time>2020-10-19T14:30:46Z</time>
      </trkpt>
      <trkpt lat="46.153" lon="4.57978">
        <ele>400.8</ele>
        <time>2020-10-19T14:30:47Z</time>
      </trkpt>
      <trkpt lat="46.15296" lon="4.57977">
        <ele>400.6</ele>
        <time>2020-10-19T14:30:48Z</time>
      </trkpt>
      <trkpt lat="46.15296" lon="4.57977">
        <ele>400.6</ele>
        <time>2020-10-19T14:30:49Z</time>
      </trkpt>
      <trkpt lat="46.15294" lon="4.57976">
        <ele>400.6</ele>
        <time>2020-10-19T14:30:50Z</time>
      </trkpt>
      <trkpt lat="46.15294" lon="4.57976">
        <ele>400.2</ele>
        <time>2020-10-19T14:30:51Z</time>
      </trkpt>
      <trkpt lat="46.15291" lon="4.57975">
        <ele>400</ele>
        <time>2020-10-19T14:30:52Z</time>
      </trkpt>
      <trkpt lat="46.15291" lon="4.57975">
        <ele>400</ele>
        <time>2020-10-19T14:30:53Z</time>
      </trkpt>
      <trkpt lat="46.15288" lon="4.57974">
        <ele>399.8</ele>
        <time>2020-10-19T14:30:54Z</time>
      </trkpt>
      <trkpt lat="46.15288" lon="4.57974">
        <ele>399.8</ele>
        <time>2020-10-19T14:30:55Z</time>
      </trkpt>
      <trkpt lat="46.15286" lon="4.57972">
        <ele>399.6</ele>
        <time>2020-10-19T14:30:56Z</time>
      </trkpt>
      <trkpt lat="46.15286" lon="4.57972">
        <ele>399.6</ele>
        <time>2020-10-19T14:30:57Z</time>
      </trkpt>
      <trkpt lat="46.15284" lon="4.57969">
        <ele>399.4</ele>
        <time>2020-10-19T14:30:58Z</time>
      </trkpt>
      <trkpt lat="46.15284" lon="4.57969">
        <ele>399.4</ele>
        <time>2020-10-19T14:30:59Z</time>
      </trkpt>
      <trkpt lat="46.15281" lon="4.57967">
        <ele>399.4</ele>
        <time>2020-10-19T14:31:00Z</time>
      </trkpt>
      <trkpt lat="46.15281" lon="4.57967">
        <ele>399.2</ele>
        <time>2020-10-19T14:31:01Z</time>
      </trkpt>
      <trkpt lat="46.15278" lon="4.57964">
        <ele>399</ele>
        <time>2020-10-19T14:31:02Z</time>
      </trkpt>
      <trkpt lat="46.15278" lon="4.57964">
        <ele>399</ele>
        <time>2020-10-19T14:31:03Z</time>
      </trkpt>
      <trkpt lat="46.15275" lon="4.57961">
        <ele>398.8</ele>
        <time>2020-10-19T14:31:04Z</time>
      </trkpt>
      <trkpt lat="46.15275" lon="4.57961">
        <ele>398.4</ele>
        <time>2020-10-19T14:31:05Z</time>
      </trkpt>
      <trkpt lat="46.15273" lon="4.57958">
        <ele>398.4</ele>
        <time>2020-10-19T14:31:06Z</time>
      </trkpt>
      <trkpt lat="46.15273" lon="4.57958">
        <ele>398.4</ele>
        <time>2020-10-19T14:31:07Z</time>
      </trkpt>
      <trkpt lat="46.1527" lon="4.57957">
        <ele>398.2</ele>
        <time>2020-10-19T14:31:08Z</time>
      </trkpt>
      <trkpt lat="46.1527" lon="4.57957">
        <ele>398.4</ele>
        <time>2020-10-19T14:31:09Z</time>
      </trkpt>
      <trkpt lat="46.15268" lon="4.57955">
        <ele>398.4</ele>
        <time>2020-10-19T14:31:10Z</time>
      </trkpt>
      <trkpt lat="46.15268" lon="4.57955">
        <ele>398.2</ele>
        <time>2020-10-19T14:31:11Z</time>
      </trkpt>
      <trkpt lat="46.15266" lon="4.57954">
        <ele>398.2</ele>
        <time>2020-10-19T14:31:12Z</time>
      </trkpt>
      <trkpt lat="46.15266" lon="4.57954">
        <ele>398.4</ele>
        <time>2020-10-19T14:31:13Z</time>
      </trkpt>
      <trkpt lat="46.15266" lon="4.57954">
        <ele>398.4</ele>
        <time>2020-10-19T14:31:14Z</time>
      </trkpt>
      <trkpt lat="46.15265" lon="4.57951">
        <ele>398.2</ele>
        <time>2020-10-19T14:31:15Z</time>
      </trkpt>
      <trkpt lat="46.15265" lon="4.57951">
        <ele>398.2</ele>
        <time>2020-10-19T14:31:16Z</time>
      </trkpt>
      <trkpt lat="46.15265" lon="4.57951">
        <ele>397.8</ele>
        <time>2020-10-19T14:31:17Z</time>
      </trkpt>
      <trkpt lat="46.15265" lon="4.57951">
        <ele>398</ele>
        <time>2020-10-19T14:31:18Z</time>
      </trkpt>
      <trkpt lat="46.15265" lon="4.57951">
        <ele>398.2</ele>
        <time>2020-10-19T14:31:19Z</time>
      </trkpt>
      <trkpt lat="46.15265" lon="4.57951">
        <ele>398.2</ele>
        <time>2020-10-19T14:31:20Z</time>
      </trkpt>
      <trkpt lat="46.15265" lon="4.57951">
        <ele>398.4</ele>
        <time>2020-10-19T14:31:21Z</time>
      </trkpt>
      <trkpt lat="46.15265" lon="4.57951">
        <ele>398.4</ele>
        <time>2020-10-19T14:31:22Z</time>
      </trkpt>
      <trkpt lat="46.15265" lon="4.57948">
        <ele>398.4</ele>
        <time>2020-10-19T14:31:23Z</time>
      </trkpt>
      <trkpt lat="46.15265" lon="4.57948">
        <ele>398.6</ele>
        <time>2020-10-19T14:31:24Z</time>
      </trkpt>
      <trkpt lat="46.15265" lon="4.57948">
        <ele>398.4</ele>
        <time>2020-10-19T14:31:25Z</time>
      </trkpt>
      <trkpt lat="46.15265" lon="4.57948">
        <ele>398.4</ele>
        <time>2020-10-19T14:31:26Z</time>
      </trkpt>
      <trkpt lat="46.15265" lon="4.57948">
        <ele>398.2</ele>
        <time>2020-10-19T14:31:27Z</time>
      </trkpt>
      <trkpt lat="46.15265" lon="4.57948">
        <ele>398.2</ele>
        <time>2020-10-19T14:31:28Z</time>
      </trkpt>
      <trkpt lat="46.15263" lon="4.57946">
        <ele>398</ele>
        <time>2020-10-19T14:31:29Z</time>
      </trkpt>
      <trkpt lat="46.15263" lon="4.57946">
        <ele>398</ele>
        <time>2020-10-19T14:31:30Z</time>
      </trkpt>
      <trkpt lat="46.15261" lon="4.57943">
        <ele>398</ele>
        <time>2020-10-19T14:31:31Z</time>
      </trkpt>
      <trkpt lat="46.15261" lon="4.57943">
        <ele>397.6</ele>
        <time>2020-10-19T14:31:32Z</time>
      </trkpt>
      <trkpt lat="46.15259" lon="4.57941">
        <ele>397.4</ele>
        <time>2020-10-19T14:31:33Z</time>
      </trkpt>
      <trkpt lat="46.15259" lon="4.57941">
        <ele>397.2</ele>
        <time>2020-10-19T14:31:34Z</time>
      </trkpt>
      <trkpt lat="46.15257" lon="4.57939">
        <ele>397</ele>
        <time>2020-10-19T14:31:35Z</time>
      </trkpt>
      <trkpt lat="46.15257" lon="4.57939">
        <ele>397</ele>
        <time>2020-10-19T14:31:36Z</time>
      </trkpt>
      <trkpt lat="46.15255" lon="4.57937">
        <ele>397</ele>
        <time>2020-10-19T14:31:37Z</time>
      </trkpt>
      <trkpt lat="46.15255" lon="4.57937">
        <ele>396.8</ele>
        <time>2020-10-19T14:31:38Z</time>
      </trkpt>
      <trkpt lat="46.15253" lon="4.57934">
        <ele>396.8</ele>
        <time>2020-10-19T14:31:39Z</time>
      </trkpt>
      <trkpt lat="46.15253" lon="4.57934">
        <ele>396.4</ele>
        <time>2020-10-19T14:31:40Z</time>
      </trkpt>
      <trkpt lat="46.15251" lon="4.57931">
        <ele>396.2</ele>
        <time>2020-10-19T14:31:41Z</time>
      </trkpt>
      <trkpt lat="46.15251" lon="4.57931">
        <ele>395.6</ele>
        <time>2020-10-19T14:31:42Z</time>
      </trkpt>
      <trkpt lat="46.15248" lon="4.5793">
        <ele>395.2</ele>
        <time>2020-10-19T14:31:43Z</time>
      </trkpt>
      <trkpt lat="46.15248" lon="4.5793">
        <ele>395.2</ele>
        <time>2020-10-19T14:31:44Z</time>
      </trkpt>
      <trkpt lat="46.15246" lon="4.57928">
        <ele>395</ele>
        <time>2020-10-19T14:31:45Z</time>
      </trkpt>
      <trkpt lat="46.15246" lon="4.57928">
        <ele>394.6</ele>
        <time>2020-10-19T14:31:46Z</time>
      </trkpt>
      <trkpt lat="46.15244" lon="4.57926">
        <ele>394.4</ele>
        <time>2020-10-19T14:31:47Z</time>
      </trkpt>
      <trkpt lat="46.15244" lon="4.57926">
        <ele>394</ele>
        <time>2020-10-19T14:31:48Z</time>
      </trkpt>
      <trkpt lat="46.15242" lon="4.57924">
        <ele>394</ele>
        <time>2020-10-19T14:31:49Z</time>
      </trkpt>
      <trkpt lat="46.15242" lon="4.57924">
        <ele>393.8</ele>
        <time>2020-10-19T14:31:50Z</time>
      </trkpt>
      <trkpt lat="46.15239" lon="4.57922">
        <ele>393.4</ele>
        <time>2020-10-19T14:31:51Z</time>
      </trkpt>
      <trkpt lat="46.15239" lon="4.57922">
        <ele>393.2</ele>
        <time>2020-10-19T14:31:52Z</time>
      </trkpt>
      <trkpt lat="46.15236" lon="4.5792">
        <ele>393.2</ele>
        <time>2020-10-19T14:31:53Z</time>
      </trkpt>
      <trkpt lat="46.15236" lon="4.5792">
        <ele>393</ele>
        <time>2020-10-19T14:31:54Z</time>
      </trkpt>
      <trkpt lat="46.15236" lon="4.5792">
        <ele>392</ele>
        <time>2020-10-19T14:31:55Z</time>
      </trkpt>
      <trkpt lat="46.15233" lon="4.5792">
        <ele>392</ele>
        <time>2020-10-19T14:31:56Z</time>
      </trkpt>
    </trkseg>
  </trk>
</gpx>